createdAt,value
2023-11-07T00:00:34.459Z,6.55
2023-11-07T00:03:02.915Z,6.49
2023-11-07T00:05:31.288Z,6.45
2023-11-07T00:08:00.059Z,6.43
2023-11-07T00:10:29.940Z,6.40
2023-11-07T00:13:00.075Z,6.44
2023-11-07T00:15:30.222Z,6.41
2023-11-07T00:18:00.338Z,6.36
2023-11-07T00:20:30.218Z,6.38
2023-11-07T00:23:00.288Z,6.32
2023-11-07T00:25:30.026Z,6.25
2023-11-07T00:28:00.553Z,6.25
2023-11-07T00:30:30.708Z,6.26
2023-11-07T00:33:00.715Z,6.26
2023-11-07T00:35:30.815Z,6.22
2023-11-07T00:38:00.831Z,6.25
2023-11-07T00:40:30.851Z,6.23
2023-11-07T00:43:00.854Z,6.20
2023-11-07T00:45:31.123Z,6.10
2023-11-07T00:47:59.578Z,6.05
2023-11-07T00:50:27.898Z,6.09
2023-11-07T00:52:56.283Z,6.04
2023-11-07T00:55:24.675Z,5.99
2023-11-07T00:57:53.157Z,5.91
2023-11-07T01:00:22.581Z,5.88
2023-11-07T01:02:50.124Z,5.86
2023-11-07T01:05:19.985Z,5.81
2023-11-07T01:07:49.935Z,5.74
2023-11-07T01:10:19.252Z,5.66
2023-11-07T01:12:47.430Z,5.61
2023-11-07T01:15:15.255Z,5.55
2023-11-07T01:17:43.604Z,5.50
2023-11-07T01:20:15.932Z,5.47
2023-11-07T01:22:46.136Z,5.48
2023-11-07T01:25:16.112Z,5.55
2023-11-07T01:27:46.056Z,5.51
2023-11-07T01:30:16.142Z,5.47
2023-11-07T01:32:46.072Z,5.44
2023-11-07T01:35:17.076Z,5.43
2023-11-07T01:37:46.105Z,5.35
2023-11-07T01:40:16.269Z,5.32
2023-11-07T01:42:49.844Z,5.28
2023-11-07T01:45:18.901Z,5.21
2023-11-07T01:47:50.447Z,5.19
2023-11-07T01:50:19.516Z,5.18
2023-11-07T01:52:49.433Z,5.18
2023-11-07T01:55:19.512Z,5.22
2023-11-07T01:57:49.522Z,5.20
2023-11-07T02:00:21.035Z,5.23
2023-11-07T02:02:50.909Z,5.31
2023-11-07T02:05:20.799Z,5.28
2023-11-07T02:07:50.805Z,5.24
2023-11-07T02:10:21.512Z,5.20
2023-11-07T02:12:51.851Z,5.18
2023-11-07T02:15:36.405Z,5.17
2023-11-07T02:18:07.843Z,5.14
2023-11-07T02:20:39.782Z,5.12
2023-11-07T02:23:35.858Z,5.14
2023-11-07T02:26:06.420Z,5.15
2023-11-07T02:28:36.691Z,5.15
2023-11-07T02:31:07.281Z,5.17
2023-11-07T02:33:38.899Z,5.12
2023-11-07T02:36:10.422Z,5.08
2023-11-07T02:38:40.616Z,5.09
2023-11-07T02:41:10.948Z,5.08
2023-11-07T02:43:39.183Z,5.06
2023-11-07T02:46:07.685Z,5.06
2023-11-07T02:48:36.273Z,5.05
2023-11-07T02:51:04.600Z,4.99
2023-11-07T02:53:33.293Z,4.96
2023-11-07T02:56:02.660Z,4.96
2023-11-07T02:58:32.674Z,4.95
2023-11-07T03:01:01.359Z,4.91
2023-11-07T03:03:30.231Z,4.89
2023-11-07T03:05:58.361Z,4.84
2023-11-07T03:08:29.020Z,4.79
2023-11-07T03:10:59.187Z,4.75
2023-11-07T03:13:29.330Z,4.80
2023-11-07T03:15:59.465Z,4.81
2023-11-07T03:18:29.720Z,4.79
2023-11-07T03:21:00.026Z,4.73
2023-11-07T03:23:30.213Z,4.71
2023-11-07T03:26:00.451Z,4.66
2023-11-07T03:28:30.569Z,4.61
2023-11-07T03:31:00.773Z,4.60
2023-11-07T03:33:31.241Z,4.58
2023-11-07T03:36:02.226Z,4.54
2023-11-07T03:38:32.455Z,4.52
2023-11-07T03:41:06.047Z,4.51
2023-11-07T03:43:36.981Z,4.45
2023-11-07T03:46:07.537Z,4.44
2023-11-07T03:48:37.800Z,4.43
2023-11-07T03:51:08.123Z,4.39
2023-11-07T03:53:38.120Z,4.41
2023-11-07T03:56:11.023Z,4.39
2023-11-07T03:58:38.922Z,4.35
2023-11-07T04:01:09.086Z,4.33
2023-11-07T04:03:39.339Z,4.31
2023-11-07T04:06:10.062Z,4.32
2023-11-07T04:08:39.920Z,4.32
2023-11-07T04:11:09.170Z,4.29
2023-11-07T04:13:39.368Z,4.36
2023-11-07T04:16:10.052Z,4.34
2023-11-07T04:18:41.113Z,4.41
2023-11-07T04:21:11.475Z,4.38
2023-11-07T04:23:43.776Z,4.39
2023-11-07T04:26:11.061Z,4.33
2023-11-07T04:28:41.195Z,4.32
2023-11-07T04:31:11.394Z,4.30
2023-11-07T04:33:43.198Z,4.31
2023-11-07T04:36:13.590Z,4.27
2023-11-07T04:38:44.234Z,4.26
2023-11-07T04:41:15.298Z,4.23
2023-11-07T04:43:45.495Z,4.25
2023-11-07T04:46:14.906Z,4.22
2023-11-07T04:48:45.192Z,4.20
2023-11-07T04:51:18.707Z,4.21
2023-11-07T04:53:47.596Z,4.22
2023-11-07T04:56:16.410Z,4.18
2023-11-07T04:58:56.806Z,4.26
2023-11-07T05:01:28.993Z,4.23
2023-11-07T05:03:59.569Z,4.23
2023-11-07T05:06:29.941Z,4.24
2023-11-07T05:09:00.350Z,4.21
2023-11-07T05:11:30.498Z,4.17
2023-11-07T05:14:02.125Z,4.15
2023-11-07T05:16:32.698Z,4.13
2023-11-07T05:19:03.695Z,4.09
2023-11-07T05:21:33.969Z,4.05
2023-11-07T05:24:05.990Z,4.13
2023-11-07T05:26:36.928Z,4.21
2023-11-07T05:29:07.353Z,4.19
2023-11-07T05:31:37.536Z,4.14
2023-11-07T05:34:07.857Z,4.13
2023-11-07T05:36:38.333Z,4.15
2023-11-07T05:39:08.663Z,4.13
2023-11-07T05:41:39.012Z,4.13
2023-11-07T05:44:08.298Z,4.15
2023-11-07T05:46:35.947Z,4.16
2023-11-07T05:49:04.395Z,4.09
2023-11-07T05:51:32.525Z,4.02
2023-11-07T05:54:00.951Z,4.02
2023-11-07T05:56:29.327Z,4.00
2023-11-07T05:58:57.749Z,3.97
2023-11-07T06:01:26.142Z,3.97
2023-11-07T06:03:55.789Z,3.96
2023-11-07T06:06:26.564Z,3.99
2023-11-07T06:08:55.100Z,3.96
2023-11-07T06:11:22.876Z,3.94
2023-11-07T06:13:51.257Z,3.95
2023-11-07T06:16:20.159Z,3.92
2023-11-07T06:18:48.335Z,3.91
2023-11-07T06:21:17.197Z,3.86
2023-11-07T06:23:44.959Z,3.86
2023-11-07T06:26:13.345Z,3.86
2023-11-07T06:28:41.773Z,3.83
2023-11-07T06:31:10.217Z,3.84
2023-11-07T06:33:38.752Z,3.82
2023-11-07T06:36:08.001Z,3.82
2023-11-07T06:38:35.379Z,3.82
2023-11-07T06:41:03.918Z,3.80
2023-11-07T06:43:33.250Z,3.81
2023-11-07T06:46:01.509Z,3.83
2023-11-07T06:48:30.250Z,3.84
2023-11-07T06:51:03.406Z,3.86
2023-11-07T06:53:33.686Z,3.87
2023-11-07T06:56:05.688Z,3.84
2023-11-07T06:58:36.866Z,3.84
2023-11-07T07:01:07.187Z,3.83
2023-11-07T07:03:37.633Z,3.85
2023-11-07T07:06:08.404Z,3.91
2023-11-07T07:08:38.752Z,3.97
2023-11-07T07:11:09.003Z,4.03
2023-11-07T07:13:39.315Z,4.06
2023-11-07T07:16:10.291Z,4.14
2023-11-07T07:18:40.866Z,4.20
2023-11-07T07:21:11.154Z,4.29
2023-11-07T07:23:43.649Z,4.36
2023-11-07T07:26:19.965Z,4.45
2023-11-07T07:28:53.822Z,4.51
2023-11-07T07:31:28.736Z,4.64
2023-11-07T07:33:59.258Z,4.78
2023-11-07T07:36:29.434Z,4.94
2023-11-07T07:38:59.592Z,5.03
2023-11-07T07:41:29.774Z,5.14
2023-11-07T07:44:02.546Z,5.25
2023-11-07T07:46:36.073Z,5.34
2023-11-07T07:49:12.471Z,5.49
2023-11-07T07:51:46.613Z,5.70
2023-11-07T07:54:35.022Z,5.86
2023-11-07T07:57:07.377Z,5.97
2023-11-07T07:59:43.092Z,6.03
2023-11-07T08:02:13.869Z,6.14
2023-11-07T08:04:44.052Z,6.28
2023-11-07T08:07:18.129Z,6.33
2023-11-07T08:09:48.449Z,6.45
2023-11-07T08:12:18.701Z,6.49
2023-11-07T08:14:49.491Z,6.55
2023-11-07T08:17:19.697Z,6.65
2023-11-07T08:19:50.681Z,6.80
2023-11-07T08:22:20.884Z,6.90
2023-11-07T08:24:49.252Z,6.99
2023-11-07T08:27:18.139Z,7.22
2023-11-07T08:29:46.070Z,7.34
2023-11-07T08:32:14.490Z,7.50
2023-11-07T08:34:43.245Z,7.62
2023-11-07T08:37:12.385Z,7.73
2023-11-07T08:39:42.213Z,7.86
2023-11-07T08:42:12.205Z,8.03
2023-11-07T08:44:40.104Z,8.14
2023-11-07T08:47:08.029Z,8.27
2023-11-07T08:49:36.465Z,8.32
2023-11-07T08:52:06.132Z,8.41
2023-11-07T08:54:38.315Z,8.35
2023-11-07T08:57:08.711Z,8.30
2023-11-07T08:59:46.090Z,8.37
2023-11-07T09:02:16.887Z,8.37
2023-11-07T09:04:49.275Z,8.39
2023-11-07T09:07:20.509Z,8.45
2023-11-07T09:09:50.709Z,8.50
2023-11-07T09:12:20.981Z,8.59
2023-11-07T09:14:49.465Z,8.62
2023-11-07T09:17:17.882Z,8.69
2023-11-07T09:19:46.337Z,8.72
2023-11-07T09:22:14.919Z,8.79
2023-11-07T09:24:42.976Z,8.82
2023-11-07T09:27:11.741Z,8.85
2023-11-07T09:29:40.517Z,8.90
2023-11-07T09:32:08.944Z,8.99
2023-11-07T09:34:42.657Z,9.15
2023-11-07T09:37:13.024Z,9.33
2023-11-07T09:39:43.168Z,9.42
2023-11-07T09:42:14.056Z,9.48
2023-11-07T09:44:44.500Z,9.57
2023-11-07T09:47:15.411Z,9.82
2023-11-07T09:49:46.546Z,10.03
2023-11-07T09:52:17.335Z,10.23
2023-11-07T09:54:50.564Z,10.34
2023-11-07T09:57:23.516Z,10.42
2023-11-07T10:00:00.476Z,10.51
2023-11-07T10:02:32.165Z,10.47
2023-11-07T10:05:06.761Z,10.50
2023-11-07T10:07:37.380Z,10.68
2023-11-07T10:10:11.841Z,10.80
2023-11-07T10:12:46.232Z,10.83
2023-11-07T10:15:21.293Z,11.02
2023-11-07T10:18:06.264Z,11.14
2023-11-07T10:20:56.455Z,11.08
2023-11-07T10:23:27.355Z,11.15
2023-11-07T10:26:14.624Z,11.13
2023-11-07T10:28:44.825Z,11.16
2023-11-07T10:31:21.939Z,11.16
2023-11-07T10:33:52.170Z,10.91
2023-11-07T10:36:24.087Z,10.91
2023-11-07T10:38:54.365Z,10.78
2023-11-07T10:41:29.674Z,10.77
2023-11-07T10:44:15.953Z,10.75
2023-11-07T10:46:50.894Z,10.70
2023-11-07T10:49:23.112Z,10.79
2023-11-07T10:51:56.899Z,10.81
2023-11-07T10:54:32.087Z,10.82
2023-11-07T10:57:12.032Z,10.86
2023-11-07T10:59:50.720Z,10.86
2023-11-07T11:02:27.299Z,10.90
2023-11-07T11:05:05.033Z,10.85
2023-11-07T11:07:36.419Z,10.83
2023-11-07T11:10:11.956Z,10.79
2023-11-07T11:12:44.375Z,10.74
2023-11-07T11:15:15.504Z,10.75
2023-11-07T11:18:09.424Z,10.81
2023-11-07T11:21:18.247Z,10.99
2023-11-07T11:24:30.191Z,10.99
2023-11-07T11:27:17.864Z,10.95
2023-11-07T11:29:48.228Z,10.99
2023-11-07T11:32:33.283Z,10.94
2023-11-07T11:35:18.048Z,10.97
2023-11-07T11:38:22.800Z,10.93
2023-11-07T11:41:02.028Z,10.92
2023-11-07T11:43:35.776Z,10.93
2023-11-07T11:46:14.587Z,10.84
2023-11-07T11:49:17.767Z,10.87
2023-11-07T11:51:49.720Z,10.85
2023-11-07T11:54:28.584Z,10.84
2023-11-07T11:57:00.406Z,10.79
2023-11-07T11:59:58.289Z,10.66
2023-11-07T12:02:46.582Z,10.46
2023-11-07T12:05:19.443Z,10.34
2023-11-07T12:07:50.225Z,10.36
2023-11-07T12:10:22.970Z,10.37
2023-11-07T12:13:02.042Z,10.43
2023-11-07T12:15:33.856Z,10.52
2023-11-07T12:18:03.293Z,10.63
2023-11-07T12:20:45.329Z,10.55
2023-11-07T12:23:16.879Z,10.44
2023-11-07T12:25:53.893Z,10.46
2023-11-07T12:28:22.166Z,10.48
2023-11-07T12:30:57.647Z,10.54
2023-11-07T12:33:30.634Z,10.70
2023-11-07T12:36:03.664Z,10.80
2023-11-07T12:38:36.199Z,10.86
2023-11-07T12:41:07.382Z,10.97
2023-11-07T12:43:44.965Z,10.89
2023-11-07T12:46:18.102Z,10.80
2023-11-07T12:48:53.475Z,10.66
2023-11-07T12:51:23.323Z,10.59
2023-11-07T12:53:54.779Z,10.63
2023-11-07T12:56:26.473Z,10.61
2023-11-07T12:59:14.091Z,10.64
2023-11-07T13:01:51.096Z,10.78
2023-11-07T13:04:21.277Z,10.85
2023-11-07T13:07:02.490Z,10.84
2023-11-07T13:09:37.078Z,10.71
2023-11-07T13:12:19.893Z,10.54
2023-11-07T13:14:50.662Z,10.51
2023-11-07T13:17:20.917Z,10.50
2023-11-07T13:19:52.046Z,10.41
2023-11-07T13:22:22.345Z,10.35
2023-11-07T13:24:52.295Z,10.28
2023-11-07T13:27:22.418Z,10.17
2023-11-07T13:29:52.642Z,10.15
2023-11-07T13:32:22.584Z,10.08
2023-11-07T13:34:52.507Z,10.05
2023-11-07T13:37:22.672Z,10.09
2023-11-07T13:39:52.674Z,10.28
2023-11-07T13:42:22.569Z,10.33
2023-11-07T13:44:55.652Z,10.37
2023-11-07T13:47:25.325Z,10.31
2023-11-07T13:49:54.499Z,10.25
2023-11-07T13:52:25.432Z,10.14
2023-11-07T13:54:55.513Z,10.05
2023-11-07T13:57:25.641Z,9.93
2023-11-07T13:59:55.998Z,9.79
2023-11-07T14:02:27.033Z,9.61
2023-11-07T14:04:57.171Z,9.51
2023-11-07T14:07:27.091Z,9.42
2023-11-07T14:09:56.840Z,9.32
2023-11-07T14:12:27.017Z,9.30
2023-11-07T14:14:56.953Z,9.28
2023-11-07T14:17:26.873Z,9.26
2023-11-07T14:20:01.000Z,9.26
2023-11-07T14:22:28.560Z,9.32
2023-11-07T14:25:00.981Z,9.31
2023-11-07T14:27:33.250Z,9.27
2023-11-07T14:30:15.730Z,9.27
2023-11-07T14:32:55.756Z,9.30
2023-11-07T14:35:26.007Z,9.26
2023-11-07T14:37:56.810Z,9.22
2023-11-07T14:40:27.847Z,9.16
2023-11-07T14:42:59.103Z,9.12
2023-11-07T14:45:29.873Z,9.11
2023-11-07T14:48:01.259Z,9.13
2023-11-07T14:50:31.609Z,9.06
2023-11-07T14:53:03.375Z,9.07
2023-11-07T14:55:37.143Z,9.01
2023-11-07T14:58:08.403Z,8.90
2023-11-07T15:00:42.518Z,8.84
2023-11-07T15:03:13.486Z,8.84
2023-11-07T15:05:46.031Z,8.81
2023-11-07T15:08:16.247Z,8.82
2023-11-07T15:10:44.271Z,8.81
2023-11-07T15:13:14.412Z,8.66
2023-11-07T15:15:45.200Z,8.54
2023-11-07T15:18:15.562Z,8.47
2023-11-07T15:20:46.089Z,8.34
2023-11-07T15:23:16.264Z,8.24
2023-11-07T15:25:46.511Z,8.14
2023-11-07T15:28:16.804Z,8.04
2023-11-07T15:30:47.054Z,7.98
2023-11-07T15:33:17.335Z,7.97
2023-11-07T15:35:47.597Z,7.82
2023-11-07T15:38:18.249Z,7.69
2023-11-07T15:40:48.420Z,7.67
2023-11-07T15:43:18.573Z,7.59
2023-11-07T15:45:48.682Z,7.52
2023-11-07T15:48:18.853Z,7.42
2023-11-07T15:50:51.189Z,7.34
2023-11-07T15:53:21.330Z,7.25
2023-11-07T15:55:51.397Z,7.21
2023-11-07T15:58:21.404Z,7.18
2023-11-07T16:00:51.438Z,7.09
2023-11-07T16:03:21.584Z,7.01
2023-11-07T16:05:50.772Z,6.94
2023-11-07T16:08:20.572Z,6.87
2023-11-07T16:10:47.744Z,6.87
2023-11-07T20:15:34.375Z,5.44
2023-11-07T20:18:04.983Z,5.43
2023-11-07T20:20:36.619Z,5.39
2023-11-07T20:23:10.022Z,5.35
2023-11-07T20:25:41.022Z,5.32
2023-11-07T20:28:11.152Z,5.31
2023-11-07T20:30:41.981Z,5.28
2023-11-07T20:33:14.257Z,5.22
2023-11-07T20:35:44.665Z,5.17
2023-11-07T20:38:14.723Z,5.15
2023-11-07T20:40:44.795Z,5.13
2023-11-07T20:43:14.936Z,5.10
2023-11-07T20:45:46.867Z,5.09
2023-11-07T20:48:16.604Z,5.07
2023-11-07T20:50:44.837Z,5.05
2023-11-07T20:53:13.538Z,5.04
2023-11-07T20:55:41.758Z,5.05
2023-11-07T20:58:10.203Z,5.02
2023-11-07T21:00:38.601Z,5.00
2023-11-07T21:03:07.145Z,4.96
2023-11-07T21:05:35.417Z,4.98
2023-11-07T21:08:04.311Z,4.93
2023-11-07T21:10:32.849Z,4.90
2023-11-07T21:13:00.694Z,4.88
2023-11-07T21:15:29.216Z,4.91
2023-11-07T21:17:57.564Z,4.87
2023-11-07T21:20:27.185Z,4.84
2023-11-07T21:22:54.421Z,4.81
2023-11-07T21:25:22.921Z,4.77
2023-11-07T21:27:51.243Z,4.76
2023-11-07T21:30:19.720Z,4.75
2023-11-07T21:32:48.240Z,4.78
2023-11-07T21:35:19.621Z,4.79
2023-11-07T21:37:51.168Z,4.80
2023-11-07T21:40:21.996Z,4.77
2023-11-07T21:42:52.794Z,4.77
2023-11-07T21:45:22.882Z,4.73
2023-11-07T21:47:52.981Z,4.71
2023-11-07T21:50:23.123Z,4.67
2023-11-07T21:52:53.510Z,4.65
2023-11-07T21:55:23.552Z,4.59
2023-11-07T21:57:53.774Z,4.59
2023-11-07T22:00:24.078Z,4.57
2023-11-07T22:02:54.119Z,4.64
2023-11-07T22:05:24.161Z,4.65
2023-11-07T22:07:54.263Z,4.63
2023-11-07T22:10:24.290Z,4.59
2023-11-07T22:12:54.337Z,4.55
2023-11-07T22:15:24.331Z,4.56
2023-11-07T22:17:54.393Z,4.54
2023-11-07T22:20:26.261Z,4.52
2023-11-07T22:22:56.297Z,4.52
2023-11-07T22:25:26.357Z,4.49
2023-11-07T22:27:56.942Z,4.47
2023-11-07T22:30:25.267Z,4.49
2023-11-07T22:32:53.232Z,4.47
2023-11-07T22:35:22.499Z,4.45
2023-11-07T22:37:50.211Z,4.43
2023-11-07T22:40:19.248Z,4.45
2023-11-07T22:42:46.876Z,4.46
2023-11-07T22:45:17.309Z,4.51
2023-11-07T22:47:46.860Z,4.59
2023-11-07T22:50:15.139Z,4.60
2023-11-07T22:52:43.550Z,4.60
2023-11-07T22:55:12.856Z,4.61
2023-11-07T22:57:40.437Z,4.59
2023-11-07T23:00:29.182Z,4.58
2023-11-07T23:02:59.896Z,4.59
2023-11-07T23:05:28.271Z,4.59
2023-11-07T23:07:56.404Z,4.57
2023-11-07T23:10:24.817Z,4.60
2023-11-07T23:12:53.316Z,4.67
2023-11-07T23:15:21.707Z,4.74
2023-11-07T23:17:50.153Z,4.78
2023-11-07T23:20:18.694Z,4.81
2023-11-07T23:22:46.892Z,4.81
2023-11-07T23:25:15.260Z,4.84
2023-11-07T23:27:43.825Z,4.87
2023-11-07T23:30:14.228Z,4.92
2023-11-07T23:32:43.740Z,4.96
2023-11-07T23:35:12.348Z,5.01
2023-11-07T23:37:40.441Z,5.02
2023-11-07T23:40:20.130Z,5.04
2023-11-07T23:42:50.459Z,5.04
2023-11-07T23:45:20.543Z,5.05
2023-11-07T23:47:50.766Z,5.11
2023-11-07T23:50:20.822Z,5.11
2023-11-07T23:52:51.361Z,5.13
2023-11-07T23:55:21.973Z,5.14
2023-11-07T23:57:52.925Z,5.16
